Time;durP1;ratioP1;P1;durP2;ratioP2;P2;SDS_P1;SDS_P2;PMS_P1;PMS_P2;Temp;Humidity;BMP_temperature;BMP_pressure;BME280_temperature;BME280_humidity;BME280_pressure;Samples;Min_cycle;Max_cycle;Signal;HPM_P1;HPM_P2
2022/04/25 00:01:16;;;;;;;1.20;1.20;;;10.30;99.90;;;;;;5035875;28;20243;-85
2022/04/25 00:03:44;;;;;;;1.30;1.20;;;10.30;99.90;;;;;;5045137;28;20655;-87
2022/04/25 00:06:11;;;;;;;1.30;1.20;;;10.30;99.90;;;;;;5039866;28;20666;-86
2022/04/25 00:08:40;;;;;;;1.40;1.30;;;10.30;99.90;;;;;;5038600;28;20219;-89
2022/04/25 00:11:07;;;;;;;1.17;1.17;;;10.30;99.90;;;;;;5037717;28;20222;-85
2022/04/25 00:13:34;;;;;;;1.55;1.42;;;10.30;99.90;;;;;;5042514;28;20242;-85
2022/04/25 00:16:01;;;;;;;1.52;1.42;;;10.30;99.90;;;;;;5045405;28;20821;-83
2022/04/25 00:18:29;;;;;;;1.25;1.25;;;10.30;99.90;;;;;;5039436;28;20334;-81
2022/04/25 00:20:56;;;;;;;1.10;1.10;;;10.30;99.90;;;;;;5043847;28;20357;-85
2022/04/25 00:23:23;;;;;;;1.10;1.10;;;10.30;99.90;;;;;;5035711;28;20635;-85
2022/04/25 00:25:51;;;;;;;1.55;1.45;;;10.30;99.90;;;;;;5038243;28;20202;-84
2022/04/25 00:28:19;;;;;;;1.45;1.30;;;10.30;99.90;;;;;;5030036;28;20235;-85
2022/04/25 00:30:47;;;;;;;1.40;1.30;;;10.30;99.90;;;;;;5032976;28;20246;-86
2022/04/25 00:33:14;;;;;;;1.27;1.20;;;10.30;99.90;;;;;;5033343;28;20231;-89
2022/04/25 00:35:41;;;;;;;1.00;1.00;;;10.40;99.90;;;;;;5028778;28;20211;-86
2022/04/25 00:38:09;;;;;;;1.30;1.20;;;10.40;99.90;;;;;;5028181;28;20219;-88
2022/04/25 00:40:36;;;;;;;1.38;1.33;;;10.40;99.90;;;;;;5032117;28;20225;-85
2022/04/25 00:43:06;;;;;;;1.95;1.30;;;10.40;99.90;;;;;;5035621;28;20767;-89
2022/04/25 00:45:34;;;;;;;1.15;1.15;;;10.40;99.90;;;;;;5040193;28;20689;-88
2022/04/25 00:48:01;;;;;;;1.75;1.50;;;10.40;99.90;;;;;;5033060;28;20697;-87
2022/04/25 00:50:29;;;;;;;1.60;1.50;;;10.40;99.90;;;;;;5035810;28;20261;-86
2022/04/25 00:52:56;;;;;;;1.48;1.38;;;10.30;99.90;;;;;;5035821;28;20266;-87
2022/04/25 00:55:24;;;;;;;1.25;1.15;;;10.30;99.90;;;;;;5033667;28;20204;-89
2022/04/25 00:57:54;;;;;;;1.27;1.27;;;10.30;99.90;;;;;;5035434;28;20199;-87
2022/04/25 01:00:23;;;;;;;1.50;1.40;;;10.30;99.90;;;;;;5038322;28;20206;-88
2022/04/25 01:02:50;;;;;;;1.42;1.33;;;10.30;99.90;;;;;;5034001;28;20199;-89
2022/04/25 01:05:17;;;;;;;1.13;1.13;;;10.20;99.90;;;;;;5010634;28;20729;-89
2022/04/25 01:07:44;;;;;;;1.40;1.30;;;10.20;99.90;;;;;;5014716;28;20236;-89
2022/04/25 01:10:12;;;;;;;1.58;1.48;;;10.20;99.90;;;;;;5032483;28;20238;-84
2022/04/25 01:12:39;;;;;;;1.20;1.20;;;10.20;99.90;;;;;;5027516;28;20208;-84
2022/04/25 01:15:09;;;;;;;1.50;1.40;;;10.10;99.90;;;;;;5034850;28;20195;-87
2022/04/25 01:17:37;;;;;;;1.23;1.23;;;10.10;99.90;;;;;;5033764;28;20195;-86
2022/04/25 01:20:06;;;;;;;1.60;1.50;;;10.10;99.90;;;;;;5033829;28;20261;-86
2022/04/25 01:22:37;;;;;;;1.52;1.42;;;10.00;99.90;;;;;;5028475;28;20326;-83
2022/04/25 01:27:51;;;;;;;1.55;1.45;;;10.00;99.90;;;;;;5029039;28;20332;-89
2022/04/25 01:30:18;;;;;;;1.52;1.50;;;9.90;99.90;;;;;;5039050;28;21454;-89
2022/04/25 01:32:45;;;;;;;1.52;1.42;;;9.90;99.90;;;;;;5039526;28;20207;-89
2022/04/25 01:35:12;;;;;;;1.77;1.52;;;9.90;99.90;;;;;;5033386;28;20206;-90
2022/04/25 01:37:39;;;;;;;1.88;1.77;;;9.80;99.90;;;;;;5037049;28;20249;-91
2022/04/25 01:40:09;;;;;;;1.40;1.30;;;9.80;99.90;;;;;;5032602;28;20231;-91
2022/04/25 01:42:36;;;;;;;1.40;1.35;;;9.80;99.90;;;;;;5036318;28;20269;-90
2022/04/25 01:45:04;;;;;;;1.70;1.60;;;9.80;99.90;;;;;;5034783;28;20761;-91
2022/04/25 01:47:31;;;;;;;1.60;1.50;;;9.80;99.90;;;;;;5037657;28;20203;-90
2022/04/25 01:49:58;;;;;;;1.65;1.60;;;9.70;99.90;;;;;;5032544;28;20574;-89
2022/04/25 01:52:29;;;;;;;1.60;1.50;;;9.70;99.90;;;;;;5035054;28;20241;-89
2022/04/25 01:54:57;;;;;;;1.63;1.52;;;9.70;99.90;;;;;;5033197;28;20219;-86
2022/04/25 01:57:26;;;;;;;1.70;1.60;;;9.60;99.90;;;;;;5033347;28;20206;-89
2022/04/25 01:59:53;;;;;;;1.50;1.40;;;9.60;99.90;;;;;;5030973;28;20220;-87
2022/04/25 02:02:22;;;;;;;1.42;1.33;;;9.60;99.90;;;;;;5029036;28;20692;-86
2022/04/25 02:04:49;;;;;;;1.65;1.55;;;9.60;99.90;;;;;;5027624;28;20306;-84
2022/04/25 02:07:16;;;;;;;1.50;1.40;;;9.50;99.90;;;;;;5033696;28;20222;-89
2022/04/25 02:09:43;;;;;;;1.50;1.48;;;9.50;99.90;;;;;;5035431;28;20219;-86
2022/04/25 02:12:10;;;;;;;1.73;1.63;;;9.50;99.90;;;;;;5039494;28;20188;-86
2022/04/25 02:14:41;;;;;;;1.65;1.55;;;9.50;99.90;;;;;;5035338;28;20603;-84
2022/04/25 02:17:09;;;;;;;1.27;1.23;;;9.50;99.90;;;;;;5038137;28;20226;-85
2022/04/25 02:19:38;;;;;;;1.30;1.30;;;9.50;99.90;;;;;;5038729;28;20305;-84
2022/04/25 02:22:06;;;;;;;1.55;1.45;;;9.50;99.90;;;;;;5040694;28;20772;-86
2022/04/25 02:24:33;;;;;;;1.35;1.33;;;9.50;99.90;;;;;;5037525;28;20223;-87
2022/04/25 02:27:03;;;;;;;2.00;1.90;;;9.50;99.90;;;;;;5039086;28;20204;-89
2022/04/25 02:29:30;;;;;;;1.50;1.40;;;9.50;99.90;;;;;;5046790;28;20246;-87
2022/04/25 02:31:59;;;;;;;1.60;1.50;;;9.50;99.90;;;;;;5037805;28;20226;-87
2022/04/25 02:34:26;;;;;;;1.35;1.35;;;9.50;99.90;;;;;;5037451;28;20255;-86
2022/04/25 02:36:55;;;;;;;1.38;1.35;;;9.50;99.90;;;;;;5040080;28;20188;-87
2022/04/25 02:39:22;;;;;;;2.03;1.40;;;9.50;99.90;;;;;;5041970;28;20223;-84
2022/04/25 02:41:50;;;;;;;1.45;1.35;;;9.50;99.90;;;;;;5040189;28;20216;-88
2022/04/25 02:44:17;;;;;;;1.48;1.45;;;9.50;99.90;;;;;;5031201;28;20227;-85
2022/04/25 02:46:44;;;;;;;1.48;1.38;;;9.50;99.90;;;;;;5028672;28;20655;-86
2022/04/25 02:49:13;;;;;;;1.83;1.70;;;9.50;99.90;;;;;;5033608;28;20227;-85
2022/04/25 02:51:40;;;;;;;1.63;1.52;;;9.50;99.90;;;;;;5037290;28;20218;-88
2022/04/25 02:54:07;;;;;;;1.45;1.42;;;9.50;99.90;;;;;;5037762;28;20226;-88
2022/04/25 02:56:34;;;;;;;1.25;1.25;;;9.50;99.90;;;;;;5037358;28;20223;-88
2022/04/25 02:59:01;;;;;;;1.50;1.50;;;9.50;99.90;;;;;;5033046;28;20251;-88
2022/04/25 03:01:28;;;;;;;1.88;1.77;;;9.50;99.90;;;;;;5018344;28;20231;-87
2022/04/25 03:03:55;;;;;;;1.30;1.30;;;9.40;99.90;;;;;;5024323;28;20235;-86
2022/04/25 03:06:24;;;;;;;1.42;1.33;;;9.40;99.90;;;;;;5019307;28;20211;-84
2022/04/25 03:08:51;;;;;;;1.30;1.30;;;9.40;99.90;;;;;;5023235;28;20235;-86
2022/04/25 03:11:18;;;;;;;1.60;1.50;;;9.40;99.90;;;;;;5015710;28;20199;-85
2022/04/25 03:13:45;;;;;;;1.70;1.60;;;9.40;99.90;;;;;;5021772;28;20289;-88
2022/04/25 03:16:12;;;;;;;1.80;1.70;;;9.40;99.90;;;;;;5015810;28;20204;-87
2022/04/25 03:18:39;;;;;;;1.75;1.55;;;9.40;99.90;;;;;;5019877;28;20215;-85
2022/04/25 03:21:07;;;;;;;1.60;1.50;;;9.40;99.90;;;;;;5041955;28;20199;-89
2022/04/25 03:23:37;;;;;;;1.50;1.50;;;9.40;99.90;;;;;;5038029;28;20242;-83
2022/04/25 03:26:04;;;;;;;1.75;1.65;;;9.40;99.90;;;;;;5036013;28;20287;-84
2022/04/25 03:28:31;;;;;;;1.58;1.48;;;9.40;99.90;;;;;;5033097;28;20241;-88
2022/04/25 03:30:58;;;;;;;1.60;1.50;;;9.40;99.90;;;;;;5028674;28;20261;-86
2022/04/25 03:33:31;;;;;;;1.30;1.30;;;9.40;99.90;;;;;;5032899;28;20200;-85
2022/04/25 03:35:58;;;;;;;1.73;1.60;;;9.30;99.90;;;;;;5038036;28;20688;-86
2022/04/25 03:38:26;;;;;;;1.50;1.40;;;9.30;99.90;;;;;;5037678;28;20203;-85
2022/04/25 03:40:55;;;;;;;1.95;1.85;;;9.30;99.90;;;;;;5043109;28;20259;-88
2022/04/25 03:43:24;;;;;;;2.13;1.95;;;9.20;99.90;;;;;;5039670;28;20732;-87
2022/04/25 03:45:51;;;;;;;2.10;2.00;;;9.20;99.90;;;;;;5043781;28;20235;-88
2022/04/25 03:48:18;;;;;;;1.67;1.65;;;9.20;99.90;;;;;;5041642;28;20234;-87
2022/04/25 03:50:45;;;;;;;1.77;1.67;;;9.20;99.90;;;;;;5042650;28;20207;-88
2022/04/25 03:53:14;;;;;;;1.55;1.50;;;9.20;99.90;;;;;;5040706;28;20346;-85
2022/04/25 03:58:27;;;;;;;1.50;1.40;;;9.10;99.90;;;;;;5036982;28;20289;-89
2022/04/25 04:00:54;;;;;;;1.75;1.65;;;9.10;99.90;;;;;;5034516;28;20201;-90
2022/04/25 04:03:21;;;;;;;1.40;1.40;;;9.10;99.90;;;;;;5036575;28;20250;-89
2022/04/25 04:05:50;;;;;;;1.40;1.40;;;9.10;99.90;;;;;;5034751;28;20204;-85
2022/04/25 04:08:17;;;;;;;1.83;1.55;;;9.10;99.90;;;;;;5031559;28;20269;-91
2022/04/25 04:10:44;;;;;;;1.50;1.40;;;9.20;99.90;;;;;;5046358;28;20202;-89
2022/04/25 04:13:11;;;;;;;1.52;1.50;;;9.20;99.90;;;;;;5041440;28;20195;-86
2022/04/25 04:15:40;;;;;;;1.90;1.80;;;9.20;99.90;;;;;;5031430;28;20229;-89
2022/04/25 04:18:07;;;;;;;1.58;1.48;;;9.20;99.90;;;;;;5035317;28;20267;-89
2022/04/25 04:20:34;;;;;;;1.80;1.70;;;9.20;99.90;;;;;;5043923;28;20281;-88
2022/04/25 04:23:02;;;;;;;1.65;1.55;;;9.20;99.90;;;;;;5041626;28;20227;-87
2022/04/25 04:25:31;;;;;;;1.85;1.75;;;9.20;99.90;;;;;;5043735;28;20235;-88
2022/04/25 04:27:58;;;;;;;1.77;1.67;;;9.10;99.90;;;;;;5042646;28;20238;-87
2022/04/25 04:30:25;;;;;;;1.45;1.42;;;9.10;99.90;;;;;;5043361;28;20701;-90
2022/04/25 04:32:54;;;;;;;1.35;1.35;;;9.10;99.90;;;;;;5041848;28;20191;-90
2022/04/25 04:38:02;;;;;;;1.77;1.67;;;9.10;99.90;;;;;;5040323;28;20540;-90
2022/04/25 04:40:30;;;;;;;1.90;1.80;;;9.20;99.90;;;;;;5045064;28;20223;-90
2022/04/25 04:42:57;;;;;;;1.98;1.88;;;9.20;99.90;;;;;;5040383;28;20215;-87
2022/04/25 04:45:24;;;;;;;1.65;1.55;;;9.20;99.90;;;;;;5038703;28;20227;-89
2022/04/25 04:47:54;;;;;;;1.70;1.60;;;9.20;99.90;;;;;;5045528;28;20199;-89
2022/04/25 04:50:21;;;;;;;2.08;1.88;;;9.20;99.90;;;;;;5039309;28;20238;-88
2022/04/25 04:52:51;;;;;;;1.60;1.50;;;9.20;99.90;;;;;;5040386;28;20294;-84
2022/04/25 04:55:18;;;;;;;1.70;1.60;;;9.20;99.90;;;;;;5034117;28;20278;-87
2022/04/25 04:57:46;;;;;;;1.20;1.20;;;9.20;99.90;;;;;;5033962;28;20658;-85
2022/04/25 05:00:14;;;;;;;1.90;1.80;;;9.20;99.90;;;;;;5029932;28;20756;-81
2022/04/25 05:02:42;;;;;;;1.83;1.73;;;9.30;99.90;;;;;;5047499;28;20214;-86
2022/04/25 05:05:12;;;;;;;2.00;1.90;;;9.20;99.90;;;;;;5039966;28;20626;-85
2022/04/25 05:07:39;;;;;;;1.90;1.80;;;9.30;99.90;;;;;;5039101;28;20560;-85
2022/04/25 05:10:07;;;;;;;1.88;1.77;;;9.30;99.90;;;;;;5041191;28;20224;-89
2022/04/25 05:12:48;;;;;;;1.63;1.52;;;9.30;99.90;;;;;;5047635;28;20191;-87
2022/04/25 05:15:15;;;;;;;2.08;1.95;;;9.30;99.90;;;;;;5039766;28;20223;-89
2022/04/25 05:17:43;;;;;;;1.45;1.35;;;9.30;99.90;;;;;;5036096;28;20207;-86
2022/04/25 05:20:13;;;;;;;1.70;1.60;;;9.30;99.90;;;;;;5034411;28;20277;-84
2022/04/25 05:22:44;;;;;;;2.00;1.90;;;9.30;99.90;;;;;;5031580;28;20253;-85
2022/04/25 05:25:11;;;;;;;1.90;1.80;;;9.40;99.90;;;;;;5029777;28;20314;-86
2022/04/25 05:27:39;;;;;;;1.92;1.83;;;9.40;99.90;;;;;;5024484;28;20203;-83
2022/04/25 05:30:08;;;;;;;2.00;1.90;;;9.40;99.90;;;;;;5024937;28;20223;-82
2022/04/25 05:32:42;;;;;;;1.70;1.60;;;9.50;99.90;;;;;;5028217;28;20259;-85
2022/04/25 05:35:11;;;;;;;1.70;1.60;;;9.50;99.90;;;;;;5025761;28;20250;-82
2022/04/25 05:37:39;;;;;;;1.50;1.40;;;9.60;99.90;;;;;;5022463;28;20210;-85
2022/04/25 05:40:07;;;;;;;1.35;1.33;;;9.70;99.90;;;;;;5026399;28;20648;-89
2022/04/25 05:42:35;;;;;;;1.85;1.75;;;9.70;99.90;;;;;;5027144;28;20682;-86
2022/04/25 05:45:02;;;;;;;1.60;1.50;;;9.80;99.90;;;;;;5030132;28;20234;-85
2022/04/25 05:47:29;;;;;;;1.70;1.60;;;9.80;99.90;;;;;;5031536;28;20200;-87
2022/04/25 05:52:42;;;;;;;1.60;1.50;;;9.90;99.90;;;;;;5033941;28;20191;-87
2022/04/25 05:55:10;;;;;;;1.80;1.70;;;10.00;99.90;;;;;;5031544;28;20223;-89
2022/04/25 05:57:37;;;;;;;1.88;1.77;;;10.00;99.90;;;;;;5028685;28;20199;-87
2022/04/25 06:00:07;;;;;;;1.80;1.70;;;10.10;99.90;;;;;;5038252;28;20226;-88
2022/04/25 06:02:36;;;;;;;1.88;1.77;;;10.20;99.90;;;;;;5032865;28;20211;-86
2022/04/25 06:05:04;;;;;;;2.20;2.03;;;10.30;99.90;;;;;;5033643;28;20231;-84
2022/04/25 06:07:32;;;;;;;1.98;1.88;;;10.40;99.90;;;;;;5031279;28;20590;-88
2022/04/25 06:10:01;;;;;;;1.80;1.70;;;10.40;99.90;;;;;;5035673;28;20250;-88
2022/04/25 06:12:29;;;;;;;1.67;1.58;;;10.50;99.90;;;;;;5029685;28;20233;-87
2022/04/25 06:14:56;;;;;;;2.42;1.77;;;10.50;99.90;;;;;;5029029;28;20212;-87
2022/04/25 06:17:24;;;;;;;2.13;1.90;;;10.60;99.90;;;;;;5031480;28;20220;-87
2022/04/25 06:19:51;;;;;;;2.38;2.22;;;10.70;99.90;;;;;;5028708;28;20215;-86
2022/04/25 06:22:19;;;;;;;5.70;2.42;;;10.90;99.90;;;;;;5025350;28;20234;-85
2022/04/25 06:24:46;;;;;;;3.13;2.80;;;11.00;99.90;;;;;;5023890;28;20226;-85
2022/04/25 06:27:16;;;;;;;2.30;2.10;;;11.30;99.90;;;;;;5024040;28;20196;-90
2022/04/25 06:29:44;;;;;;;2.70;2.30;;;11.50;99.90;;;;;;5030110;28;20223;-89
2022/04/25 06:32:11;;;;;;;1.90;1.70;;;11.50;99.90;;;;;;5034560;28;20224;-89
2022/04/25 06:34:39;;;;;;;1.80;1.70;;;11.50;99.90;;;;;;5031840;28;20231;-86
2022/04/25 06:37:06;;;;;;;1.85;1.75;;;11.50;99.90;;;;;;5032318;28;20227;-90
2022/04/25 06:39:33;;;;;;;1.80;1.70;;;11.50;99.90;;;;;;5027892;28;20227;-89
2022/04/25 06:42:00;;;;;;;1.63;1.52;;;11.60;99.90;;;;;;5029784;28;20203;-88
2022/04/25 06:44:30;;;;;;;2.03;1.85;;;11.80;99.90;;;;;;5026826;28;20223;-88
2022/04/25 06:46:57;;;;;;;1.50;1.40;;;12.10;99.90;;;;;;5027112;28;20207;-86
2022/04/25 06:49:24;;;;;;;1.27;1.17;;;12.40;99.90;;;;;;5024141;28;20293;-88
2022/04/25 06:51:52;;;;;;;1.80;1.70;;;12.50;99.90;;;;;;5023225;28;20212;-80
2022/04/25 06:54:20;;;;;;;3.72;1.70;;;12.40;99.90;;;;;;5018254;28;20350;-84
2022/04/25 06:56:48;;;;;;;1.40;1.40;;;12.20;99.90;;;;;;5025679;28;20218;-83
2022/04/25 06:59:15;;;;;;;1.55;1.45;;;12.20;99.90;;;;;;5019803;28;20231;-82
2022/04/25 07:01:43;;;;;;;1.55;1.40;;;12.20;99.90;;;;;;5018984;28;20293;-83
2022/04/25 07:04:11;;;;;;;1.42;1.40;;;12.30;99.90;;;;;;5021559;28;20318;-85
2022/04/25 07:06:38;;;;;;;1.40;1.30;;;12.40;99.90;;;;;;5027081;28;20203;-82
2022/04/25 07:09:06;;;;;;;1.60;1.50;;;12.50;99.90;;;;;;5024347;28;20416;-86
2022/04/25 07:11:33;;;;;;;2.47;1.52;;;12.70;99.90;;;;;;5031158;28;20853;-82
2022/04/25 07:14:02;;;;;;;1.70;1.60;;;13.30;99.90;;;;;;5028006;28;20307;-84
2022/04/25 07:16:30;;;;;;;3.25;1.73;;;13.70;99.90;;;;;;5022177;28;20791;-84
2022/04/25 07:18:58;;;;;;;1.63;1.52;;;13.70;99.90;;;;;;5024539;28;20196;-81
2022/04/25 07:29:41;;;;;;;1.95;1.83;;;13.80;99.90;;;;;;5025777;28;20273;-83
2022/04/25 07:32:08;;;;;;;1.63;1.50;;;14.20;99.90;;;;;;5020589;28;20584;-81
2022/04/25 07:34:39;;;;;;;3.30;2.35;;;14.60;99.90;;;;;;5024465;28;20219;-80
2022/04/25 07:37:06;;;;;;;2.55;1.90;;;15.00;99.90;;;;;;5025231;28;20267;-81
2022/04/25 07:39:33;;;;;;;2.22;2.03;;;15.30;99.90;;;;;;5028097;28;20234;-84
2022/04/25 07:42:00;;;;;;;1.88;1.75;;;15.40;99.90;;;;;;5028974;28;20571;-81
2022/04/25 07:44:27;;;;;;;1.70;1.60;;;15.30;99.90;;;;;;5029154;28;20242;-83
2022/04/25 07:46:55;;;;;;;1.73;1.63;;;15.20;99.90;;;;;;5027150;28;20295;-83
2022/04/25 07:49:22;;;;;;;1.42;1.33;;;15.10;99.90;;;;;;5035466;28;20227;-85
2022/04/25 07:51:51;;;;;;;1.50;1.40;;;15.20;99.90;;;;;;5044003;28;20262;-85
2022/04/25 07:54:19;;;;;;;1.40;1.30;;;15.10;99.90;;;;;;5045365;28;20184;-84
2022/04/25 07:56:47;;;;;;;1.30;1.20;;;15.00;99.90;;;;;;5041282;28;20192;-84
2022/04/25 07:59:14;;;;;;;1.60;1.30;;;15.10;99.90;;;;;;5036989;28;20216;-86
2022/04/25 08:01:41;;;;;;;1.63;1.52;;;15.20;99.90;;;;;;5044102;28;20199;-84
2022/04/25 08:04:09;;;;;;;1.10;1.10;;;15.40;99.90;;;;;;5053020;28;20210;-85
2022/04/25 08:06:37;;;;;;;1.90;1.73;;;15.50;99.90;;;;;;5040831;28;20222;-83
2022/04/25 08:09:29;;;;;;;1.52;1.42;;;15.70;99.90;;;;;;5052639;28;20244;-82
2022/04/25 08:18:00;;;;;;;1.25;1.15;;;15.60;99.90;;;;;;5057718;28;20186;-82
2022/04/25 08:20:28;;;;;;;1.50;1.40;;;15.70;99.90;;;;;;5066333;23;20287;-77
2022/04/25 08:22:55;;;;;;;1.15;1.05;;;16.00;99.90;;;;;;5038376;28;21479;-77
2022/04/25 08:25:24;;;;;;;1.50;1.40;;;16.20;99.90;;;;;;5040832;28;20206;-77
2022/04/25 08:27:52;;;;;;;1.40;1.30;;;16.60;99.90;;;;;;5042245;28;20222;-78
2022/04/25 08:30:19;;;;;;;1.13;1.10;;;16.90;99.90;;;;;;5037376;28;20200;-78
2022/04/25 08:32:47;;;;;;;1.55;1.23;;;16.90;99.90;;;;;;5041116;28;20219;-78
2022/04/25 08:35:14;;;;;;;1.20;1.20;;;17.00;99.90;;;;;;5040225;28;20329;-77
2022/04/25 08:37:41;;;;;;;1.95;1.85;;;17.00;99.90;;;;;;5036371;28;20545;-77
2022/04/25 08:40:10;;;;;;;1.55;1.45;;;17.10;99.90;;;;;;5040767;28;20809;-77
2022/04/25 08:42:38;;;;;;;1.55;1.45;;;17.30;99.90;;;;;;5041367;28;20548;-78
2022/04/25 08:45:07;;;;;;;1.60;1.50;;;17.60;99.90;;;;;;5040592;28;20191;-76
2022/04/25 08:47:38;;;;;;;1.45;1.35;;;17.90;99.90;;;;;;5039220;28;20664;-77
2022/04/25 08:50:07;;;;;;;1.10;1.10;;;17.90;99.90;;;;;;5039286;28;20741;-76
2022/04/25 08:52:35;;;;;;;1.25;1.25;;;17.70;99.90;;;;;;5042775;28;20614;-77
2022/04/25 08:55:03;;;;;;;1.50;1.35;;;17.60;99.90;;;;;;5040489;28;20275;-77
2022/04/25 08:57:35;;;;;;;1.35;1.25;;;17.40;99.90;;;;;;5040108;28;20222;-77
2022/04/25 09:00:05;;;;;;;1.30;1.20;;;17.30;99.90;;;;;;5043977;28;20192;-78
2022/04/25 09:02:33;;;;;;;1.60;1.13;;;17.50;99.90;;;;;;5035881;28;20227;-77
2022/04/25 09:05:00;;;;;;;1.67;1.42;;;17.80;99.90;;;;;;5040933;28;20531;-81
2022/04/25 09:07:27;;;;;;;1.50;1.38;;;17.90;99.90;;;;;;5039361;28;20215;-80
2022/04/25 09:09:54;;;;;;;1.33;1.23;;;17.80;99.90;;;;;;5041990;28;20221;-81
2022/04/25 09:12:21;;;;;;;1.40;1.30;;;17.70;99.90;;;;;;5045511;28;20199;-79
2022/04/25 09:14:48;;;;;;;1.33;1.23;;;17.70;99.90;;;;;;5038815;28;20191;-79
2022/04/25 09:17:17;;;;;;;1.35;1.25;;;17.80;99.90;;;;;;5039781;28;20563;-77
2022/04/25 09:19:44;;;;;;;1.30;1.27;;;18.20;99.90;;;;;;5038781;28;20199;-79
2022/04/25 09:22:12;;;;;;;1.35;1.25;;;18.20;99.90;;;;;;5043537;28;20676;-79
2022/04/25 09:24:45;;;;;;;1.00;1.00;;;18.20;99.90;;;;;;5041193;28;20581;-78
2022/04/25 09:27:17;;;;;;;1.52;1.40;;;18.40;99.90;;;;;;5042064;28;20215;-78
2022/04/25 09:29:46;;;;;;;1.13;1.13;;;18.50;99.90;;;;;;5043836;28;20303;-77
2022/04/25 09:32:13;;;;;;;1.55;1.45;;;18.90;99.90;;;;;;5045413;28;20223;-78
2022/04/25 09:37:45;;;;;;;0.90;0.90;;;19.20;99.90;;;;;;5042862;28;20704;-78
2022/04/25 09:40:15;;;;;;;1.27;1.17;;;19.20;99.90;;;;;;5042287;28;20203;-78
2022/04/25 09:42:42;;;;;;;1.25;1.02;;;19.20;99.90;;;;;;5040335;28;20222;-79
2022/04/25 09:45:09;;;;;;;1.00;1.00;;;19.20;99.90;;;;;;5041040;28;20218;-78
2022/04/25 09:47:38;;;;;;;1.17;1.08;;;19.20;99.90;;;;;;5040659;28;20211;-78
2022/04/25 09:50:08;;;;;;;1.27;1.13;;;19.20;99.90;;;;;;5042250;28;20363;-77
2022/04/25 09:52:37;;;;;;;1.30;1.20;;;19.50;99.90;;;;;;5039238;28;20199;-78
2022/04/25 09:55:14;;;;;;;0.90;0.90;;;19.60;99.90;;;;;;5047525;28;20379;-80
2022/04/25 09:57:42;;;;;;;2.25;1.17;;;19.60;99.90;;;;;;5040071;28;20210;-80
2022/04/25 10:00:10;;;;;;;1.27;1.17;;;19.60;99.90;;;;;;5042703;28;20195;-79
2022/04/25 10:02:40;;;;;;;1.35;0.90;;;19.60;99.90;;;;;;5039253;28;20423;-79
2022/04/25 10:05:17;;;;;;;1.05;1.00;;;19.50;99.90;;;;;;5040328;28;20309;-80
2022/04/25 10:07:45;;;;;;;1.27;1.17;;;19.30;99.90;;;;;;5098456;22;20234;-71
2022/04/25 10:10:13;;;;;;;1.02;1.02;;;19.40;99.90;;;;;;5016581;28;21190;-69
2022/04/25 10:12:40;;;;;;;0.90;0.90;;;19.60;99.90;;;;;;5020293;28;20198;-68
2022/04/25 10:15:08;;;;;;;1.05;1.00;;;19.70;99.90;;;;;;5018616;28;20413;-68
2022/04/25 10:17:38;;;;;;;1.10;1.00;;;19.50;99.90;;;;;;5014990;28;20223;-68
2022/04/25 10:20:07;;;;;;;1.08;1.08;;;19.50;99.90;;;;;;5000600;28;20541;-69
2022/04/25 10:22:36;;;;;;;1.20;1.10;;;19.40;99.90;;;;;;5000573;28;20733;-69
2022/04/25 10:25:04;;;;;;;1.10;1.10;;;19.40;99.90;;;;;;4996195;28;20228;-68
2022/04/25 10:27:35;;;;;;;1.25;0.90;;;19.40;99.90;;;;;;4997028;28;20255;-68
2022/04/25 10:30:09;;;;;;;1.10;0.80;;;19.60;99.90;;;;;;4999775;28;20616;-69
2022/04/25 10:32:36;;;;;;;1.35;1.25;;;19.60;99.90;;;;;;5003806;28;20192;-68
2022/04/25 10:35:05;;;;;;;0.93;0.93;;;19.70;99.90;;;;;;5000272;28;20227;-68
2022/04/25 10:37:36;;;;;;;1.65;0.75;;;19.80;99.90;;;;;;5004011;28;20227;-70
2022/04/25 10:40:04;;;;;;;1.08;1.00;;;19.90;99.90;;;;;;4981272;28;20746;-69
2022/04/25 10:45:16;;;;;;;0.88;0.80;;;20.30;99.90;;;;;;4986246;28;20856;-69
2022/04/25 10:48:00;;;;;;;0.73;0.73;;;20.00;99.90;;;;;;4983173;28;20217;-69
2022/04/25 10:50:29;;;;;;;0.80;0.80;;;19.90;99.90;;;;;;4988413;28;20282;-70
2022/04/25 10:52:58;;;;;;;1.10;1.00;;;19.90;99.90;;;;;;4984470;28;20976;-67
2022/04/25 10:55:46;;;;;;;1.33;0.90;;;20.00;99.90;;;;;;4986350;28;20714;-68
2022/04/25 10:58:20;;;;;;;0.70;0.70;;;20.40;99.90;;;;;;4980535;28;20228;-70
2022/04/25 11:00:52;;;;;;;1.00;1.00;;;20.50;99.90;;;;;;4984918;28;20510;-69
2022/04/25 11:03:24;;;;;;;0.80;0.80;;;20.40;99.90;;;;;;4986859;28;20263;-70
2022/04/25 11:05:54;;;;;;;0.60;0.60;;;20.40;99.90;;;;;;4988182;28;20600;-70
2022/04/25 11:08:34;;;;;;;0.80;0.80;;;20.30;99.90;;;;;;4986177;28;20316;-69
2022/04/25 11:11:08;;;;;;;0.57;0.57;;;20.30;99.90;;;;;;4985626;28;20196;-70
2022/04/25 11:13:36;;;;;;;1.98;0.73;;;20.20;99.90;;;;;;4981846;28;20298;-69
2022/04/25 11:16:18;;;;;;;1.15;0.90;;;20.20;99.90;;;;;;4981117;28;20668;-73
2022/04/25 11:18:46;;;;;;;0.60;0.60;;;20.10;99.90;;;;;;4985942;28;20578;-69
2022/04/25 11:21:16;;;;;;;0.75;0.75;;;20.00;99.90;;;;;;4985184;28;20197;-69
2022/04/25 11:23:51;;;;;;;1.13;0.75;;;20.20;99.90;;;;;;4982954;28;20216;-69
2022/04/25 11:26:52;;;;;;;0.77;0.73;;;20.30;99.90;;;;;;4992637;28;20204;-69
2022/04/25 11:29:19;;;;;;;0.90;0.85;;;20.60;99.90;;;;;;4984755;28;20216;-69
2022/04/25 11:31:46;;;;;;;0.98;0.95;;;20.60;99.90;;;;;;4986324;28;20213;-69
2022/04/25 11:34:14;;;;;;;0.90;0.90;;;20.70;99.90;;;;;;4985086;28;20212;-70
2022/04/25 11:36:43;;;;;;;1.85;0.80;;;20.60;99.90;;;;;;4988737;28;20219;-69
2022/04/25 11:42:06;;;;;;;0.85;0.80;;;20.40;99.90;;;;;;4971591;28;20203;-68
2022/04/25 11:44:38;;;;;;;0.90;0.90;;;20.50;99.90;;;;;;4982595;28;20263;-69
2022/04/25 11:47:06;;;;;;;0.80;0.80;;;20.30;99.90;;;;;;4993611;28;20510;-70
2022/04/25 11:49:37;;;;;;;0.70;0.70;;;20.40;99.90;;;;;;5010269;28;20215;-69
2022/04/25 11:52:05;;;;;;;0.70;0.70;;;20.40;99.90;;;;;;5009043;28;20189;-70
2022/04/25 11:54:34;;;;;;;0.80;0.80;;;20.40;99.90;;;;;;5007660;28;20221;-70
2022/04/25 11:57:03;;;;;;;0.90;0.90;;;20.40;99.90;;;;;;5004001;28;20201;-69
2022/04/25 11:59:31;;;;;;;0.75;0.75;;;20.30;99.90;;;;;;5004074;28;20239;-69
2022/04/25 12:01:58;;;;;;;1.00;1.00;;;20.30;99.90;;;;;;4996966;28;20251;-69
2022/04/25 12:04:27;;;;;;;0.80;0.80;;;20.40;99.90;;;;;;4985261;28;20628;-70
2022/04/25 12:06:56;;;;;;;1.10;0.70;;;20.50;99.90;;;;;;4984806;28;20213;-69
2022/04/25 12:17:43;;;;;;;0.80;0.80;;;20.30;99.90;;;;;;4982999;28;20226;-69
2022/04/25 12:20:12;;;;;;;0.73;0.73;;;20.10;99.90;;;;;;4982101;28;20221;-68
2022/04/25 12:22:40;;;;;;;0.68;0.60;;;20.40;99.90;;;;;;4990033;28;20535;-67
2022/04/25 12:25:18;;;;;;;0.88;0.80;;;20.50;99.90;;;;;;4979861;28;20493;-69
2022/04/25 12:28:05;;;;;;;1.13;0.88;;;20.30;99.90;;;;;;4976550;28;20221;-68
2022/04/25 12:30:44;;;;;;;2.70;0.80;;;20.10;99.90;;;;;;4978834;28;20220;-69
2022/04/25 12:33:13;;;;;;;0.82;0.80;;;20.30;99.90;;;;;;4982406;28;20694;-69
2022/04/25 12:35:40;;;;;;;1.23;0.90;;;20.40;99.90;;;;;;4984521;28;20324;-69
2022/04/25 12:38:08;;;;;;;0.80;0.80;;;20.30;99.90;;;;;;4985468;28;20236;-69
2022/04/25 12:40:56;;;;;;;0.98;0.77;;;20.40;99.90;;;;;;4983911;28;20216;-68
2022/04/25 12:43:43;;;;;;;1.10;1.00;;;20.50;99.90;;;;;;4984290;28;20636;-68
2022/04/25 12:46:12;;;;;;;1.48;1.02;;;20.70;99.90;;;;;;4997901;28;20275;-69
2022/04/25 12:48:59;;;;;;;1.50;0.75;;;20.70;99.90;;;;;;5001978;28;20219;-70
2022/04/25 12:51:31;;;;;;;0.80;0.80;;;20.40;99.90;;;;;;5006962;28;20316;-69
2022/04/25 12:53:58;;;;;;;0.80;0.80;;;20.30;99.90;;;;;;5012377;28;20204;-71
2022/04/25 12:56:27;;;;;;;0.75;0.75;;;20.10;99.90;;;;;;4987211;28;20219;-70
2022/04/25 12:58:56;;;;;;;3.10;0.90;;;19.70;99.90;;;;;;5008937;28;20231;-70
2022/04/25 13:01:31;;;;;;;1.42;1.00;;;19.70;99.90;;;;;;5004136;28;20311;-69
2022/04/25 13:04:09;;;;;;;0.90;0.90;;;19.80;99.90;;;;;;5002949;28;20192;-68
2022/04/25 13:06:37;;;;;;;1.67;1.40;;;19.80;99.90;;;;;;5003793;28;20228;-69
2022/04/25 13:09:05;;;;;;;3.78;1.15;;;19.60;99.90;;;;;;4997543;28;20653;-70
2022/04/25 13:11:34;;;;;;;0.70;0.70;;;19.70;99.90;;;;;;5001456;28;20598;-69
2022/04/25 13:14:03;;;;;;;1.23;0.90;;;19.70;99.90;;;;;;5001189;28;20211;-69
2022/04/25 13:16:30;;;;;;;0.88;0.80;;;19.80;99.90;;;;;;5007429;28;20235;-69
2022/04/25 13:18:58;;;;;;;0.90;0.90;;;20.00;99.90;;;;;;5003809;28;20560;-69
2022/04/25 13:21:25;;;;;;;2.28;1.00;;;19.90;99.90;;;;;;5002821;28;20818;-70
2022/04/25 13:23:53;;;;;;;1.08;0.98;;;19.90;99.90;;;;;;5000181;28;20222;-69
2022/04/25 13:26:21;;;;;;;1.35;1.25;;;20.00;99.90;;;;;;5003637;28;20243;-70
2022/04/25 13:28:49;;;;;;;0.88;0.82;;;20.10;99.90;;;;;;4996204;28;20448;-69
2022/04/25 13:31:18;;;;;;;0.85;0.85;;;20.30;99.90;;;;;;5001422;28;20239;-69
2022/04/25 13:33:45;;;;;;;0.90;0.90;;;20.40;99.90;;;;;;5003400;28;20231;-69
2022/04/25 13:36:12;;;;;;;1.10;1.10;;;20.40;99.90;;;;;;5015633;28;20279;-69
2022/04/25 13:38:39;;;;;;;0.95;0.95;;;20.20;99.90;;;;;;5010729;28;20300;-70
2022/04/25 13:41:06;;;;;;;0.95;0.95;;;20.10;99.90;;;;;;5004822;28;20235;-69